This is the latest recevied weather packets stored in our database for station/object KB1LTW-13. If no packets are shown the sender has not sent any weather packets the latest 10 day(s).
| Time | Temp. | Humidity | Pressure | Rain* | Wind** | Luminosity | Snow |
|---|---|---|---|---|---|---|---|
| 1777198276 | 4.44° C | 98% | 1020.3 hPa | 0 mm | - | 3 W/m² | - |
| 1777197083 | 4.44° C | 98% | 1019.7 hPa | 0 mm | - | 0 W/m² | - |
| 1777194085 | 4.44° C | 98% | 1020 hPa | 0 mm | - | 0 W/m² | - |
| 1777190481 | 3.89° C | 97% | 1019.7 hPa | 0 mm | - | 0 W/m² | - |
| 1777181477 | 3.89° C | 97% | 1020.3 hPa | 0 mm | - | 0 W/m² | - |
| 1777179083 | 3.89° C | 97% | 1020.7 hPa | 0 mm | - | 0 W/m² | - |
| 1777174884 | 3.89° C | 97% | 1020.8 hPa | 0 mm | - | 0 W/m² | - |
| 1777171886 | 4.44° C | 96% | 1021 hPa | 0 mm | - | 0 W/m² | - |
| 1777167675 | 4.44° C | 96% | 1020.9 hPa | 0 mm | - | 0 W/m² | - |
| 1777165899 | 4.44° C | 95% | 1020.6 hPa | 0 mm | - | 0 W/m² | - |
| 1777164676 | 4.44° C | 95% | 1020.4 hPa | 0 mm | - | 0 W/m² | - |
| 1777163482 | 5° C | 94% | 1020.1 hPa | 0 mm | - | 0 W/m² | - |
| 1777160481 | 5.56° C | 93% | 1019.6 hPa | 0 mm | - | 0 W/m² | - |
| 1777153283 | 6.67° C | 80% | 1018.7 hPa | 0 mm | - | 57 W/m² | - |
| 1777151476 | 8.33° C | 65% | 1018.5 hPa | 0 mm | - | 65 W/m² | - |
| 1777141885 | 11.67° C | 49% | 1018.9 hPa | 0 mm | - | 250 W/m² | - |
| 1777137076 | 10° C | 50% | 1019.3 hPa | 0 mm | - | 470 W/m² | - |
| 1777136477 | 10° C | 51% | 1019.6 hPa | 0 mm | - | 445 W/m² | - |
| 1777132279 | 9.44° C | 56% | 1020.1 hPa | 0 mm | - | 552 W/m² | - |
| 1777128680 | 7.78° C | 63% | 1020.5 hPa | 0 mm | - | 334 W/m² | - |
| 1777128087 | 7.78° C | 63% | 1020.5 hPa | 0 mm | - | 224 W/m² | - |
| 1777126879 | 7.22° C | 66% | 1020.3 hPa | 0 mm | - | 197 W/m² | - |
| 1777125081 | 7.22° C | 66% | 1020.3 hPa | 0 mm | - | 381 W/m² | - |
| 1777123279 | 6.67° C | 69% | 1020.4 hPa | 0 mm | - | 341 W/m² | - |
| 1777114903 | 0.56° C | 96% | 1019.8 hPa | 0 mm | - | 23 W/m² | - |
* Rain latest hour (hover to see other rain measurements)
** Current wind speed in m/s (hover to see current wind gust speed)